Rugby, United Kingdom
Current Conditions -  °F | °C
As of 9:50 AM on Tuesday 21 Oct 2014 (Local Time) from EGBE Reporting Station
Few Clouds Few Clouds  
Wind Chill: 54°   Ceiling: Unl
Heat Index: 54°   Visibility: 6mi
Dew Point: 41°   Wind: 17mph
Humidity: 62%   Direction: 280°W
Pressure: 29.56"   Gusts: 35mph
Location:  52.39°N, 1.32°W
Report Text: EGBE 210850Z 28015G30KT 9999 FEW035 12/05 Q1001
Loading
Personal Weather Stations






























Interactive Weather Map
Tropical Storm Tracking
New forecast layout! Learn more

10-Day Weather Forecast

Advertisements
Track Severe Weather on mobile